»·PEaware :: N1128 KSEA-KSFO

N1128 :: KSEA-KSFO

FLIGHT INFORMATION

Flight Status: Arrived
Operator: Privately registered:
United States
More flights under this callsign
Pilot: Siddique N. (20419)
Aircraft: Unknown
(BT7)
More flights by this aircraft type
Origin: KSEA Seattle-Tacoma Intl
United States
Destination: KSFO San Francisco Intl
United States
More flights between these airports :: More routes between these airports
Route: HAROB6 ERAVE Q1 ETCHY MLBEC BDEGA3
File this flight plan on PilotEdge
Remarks:
Altitude:
(Current/Filed)
27,000ft
Speed:
(Current/Filed)
350kts
Departed: 04-Nov-20 10:36 AM
Arrived: 04-Nov-20 12:07 PM
Distance/Time
Traveled:
590nm/1:31
Distance/Time
To Go:
Arrived

Flight Plot

Page will automatically refresh every two minutes.

Flight plan parsing failed; only flown route is shown


Map Options




Map Legend


Flown Route
Filed Route
Departure Airport
Arrival Airport
Navaid (VOR, NDB)
Fix

Horizontal Profiles

Position Reports

Time Latitude Longitude Heading Altitude Ground
Speed
04-Nov-20 10:17 47.439169 -122.315227 55 352ft 0kts
04-Nov-20 10:18 47.439169 -122.315227 55 352ft 0kts
04-Nov-20 10:19 47.439169 -122.315227 55 352ft 0kts
04-Nov-20 10:20 47.439169 -122.315227 55 352ft 0kts
04-Nov-20 10:21 47.439169 -122.315227 55 352ft 0kts
04-Nov-20 10:22 47.439169 -122.315227 55 352ft 0kts
04-Nov-20 10:23 47.439169 -122.315227 55 352ft 0kts
04-Nov-20 10:24 47.439169 -122.315227 55 352ft 0kts
04-Nov-20 10:25 47.439169 -122.315227 55 352ft 0kts
04-Nov-20 10:26 47.439169 -122.315227 55 352ft 0kts
04-Nov-20 10:27 47.439169 -122.315227 55 352ft 0kts
04-Nov-20 10:28 47.439169 -122.315227 55 352ft 0kts
04-Nov-20 10:29 47.443130 -122.313601 1 368ft 28kts
04-Nov-20 10:30 47.451402 -122.313509 0 403ft 31kts
04-Nov-20 10:31 47.459159 -122.313479 0 398ft 23kts
04-Nov-20 10:32 47.463716 -122.315510 270 353ft 8kts
04-Nov-20 10:33 47.463719 -122.315828 268 350ft 0kts
04-Nov-20 10:34 47.463454 -122.317847 183 328ft 0kts
04-Nov-20 10:35 47.461992 -122.317888 178 332ft 62kts
04-Nov-20 10:36 47.413959 -122.317793 177 1396ft 196kts
04-Nov-20 10:37 47.351034 -122.314773 178 3489ft 209kts
04-Nov-20 10:38 47.311692 -122.357833 264 5363ft 246kts
04-Nov-20 10:39 47.312151 -122.461841 264 7752ft 232kts
04-Nov-20 10:40 47.313839 -122.559259 270 10296ft 260kts
04-Nov-20 10:41 47.317722 -122.665197 267 12785ft 252kts
04-Nov-20 10:42 47.316145 -122.770315 252 15340ft 273kts
04-Nov-20 10:43 47.290277 -122.875062 249 17863ft 263kts
04-Nov-20 10:44 47.260880 -122.983567 249 20422ft 319kts
04-Nov-20 10:45 47.199746 -123.083229 220 23023ft 350kts
04-Nov-20 10:46 47.119623 -123.167544 223 25523ft 364kts
04-Nov-20 10:47 47.032823 -123.258024 223 27075ft 406kts
04-Nov-20 10:48 46.934684 -123.370321 221 27099ft 471kts
04-Nov-20 10:49 46.796211 -123.386554 184 27105ft 521kts
04-Nov-20 10:50 46.650924 -123.379285 186 27124ft 517kts
04-Nov-20 10:51 46.505759 -123.376783 188 27124ft 514kts
04-Nov-20 10:52 46.360708 -123.377121 187 27124ft 514kts
04-Nov-20 10:53 46.216049 -123.373768 187 27124ft 514kts
04-Nov-20 10:54 46.071594 -123.368161 185 27151ft 516kts
04-Nov-20 10:55 45.925978 -123.363973 188 27152ft 514kts
04-Nov-20 10:56 45.780279 -123.359638 186 27151ft 517kts
04-Nov-20 10:57 45.634690 -123.351850 186 27151ft 514kts
04-Nov-20 10:58 45.490766 -123.346415 187 27152ft 513kts
04-Nov-20 10:59 45.345371 -123.342017 187 27176ft 520kts
04-Nov-20 11:00 45.198859 -123.337670 187 27178ft 521kts
04-Nov-20 11:01 45.052465 -123.335878 188 27178ft 516kts
04-Nov-20 11:02 44.907350 -123.334614 187 27180ft 518kts
04-Nov-20 11:03 44.761381 -123.332782 183 27181ft 527kts
04-Nov-20 11:04 44.612791 -123.321035 185 27180ft 527kts
04-Nov-20 11:05 44.463417 -123.314836 186 27207ft 528kts
04-Nov-20 11:06 44.314414 -123.312155 186 27233ft 531kts
04-Nov-20 11:07 44.164638 -123.309985 186 27234ft 533kts
04-Nov-20 11:08 44.013614 -123.304938 185 27234ft 537kts
04-Nov-20 11:09 43.861541 -123.295608 184 27233ft 540kts
04-Nov-20 11:10 43.709790 -123.287607 184 27232ft 533kts
04-Nov-20 11:11 43.561765 -123.284171 186 27253ft 524kts
04-Nov-20 11:12 43.414750 -123.282178 184 27262ft 527kts
04-Nov-20 11:14 43.266268 -123.273806 183 27262ft 532kts
04-Nov-20 11:15 43.116966 -123.267083 185 27262ft 529kts
04-Nov-20 11:16 42.968125 -123.264496 185 27263ft 527kts
04-Nov-20 11:17 42.818798 -123.260586 184 27261ft 533kts
04-Nov-20 11:18 42.668326 -123.252741 183 27315ft 536kts
04-Nov-20 11:19 42.516270 -123.245749 184 27316ft 539kts
04-Nov-20 11:20 42.364392 -123.245252 184 27316ft 537kts
04-Nov-20 11:21 42.214629 -123.238603 182 27315ft 529kts
04-Nov-20 11:22 42.065100 -123.229277 183 27291ft 534kts
04-Nov-20 11:23 41.912516 -123.222873 183 27292ft 539kts
04-Nov-20 11:24 41.759374 -123.217044 183 27329ft 543kts
04-Nov-20 11:25 41.605743 -123.212787 184 27343ft 545kts
04-Nov-20 11:26 41.450890 -123.211450 184 27344ft 549kts
04-Nov-20 11:27 41.294590 -123.209932 183 27122ft 548kts
04-Nov-20 11:28 41.140076 -123.203752 182 27099ft 533kts
04-Nov-20 11:29 40.988860 -123.196482 182 27103ft 529kts
04-Nov-20 11:30 40.839866 -123.192677 182 27100ft 532kts
04-Nov-20 11:31 40.688353 -123.189783 182 27100ft 536kts
04-Nov-20 11:31 40.561892 -123.187741 182 27101ft 538kts
04-Nov-20 11:33 40.383466 -123.182034 181 27112ft 539kts
04-Nov-20 11:33 40.257641 -123.178103 181 27262ft 527kts
04-Nov-20 11:35 40.084472 -123.176142 182 27268ft 530kts
04-Nov-20 11:35 39.958201 -123.174091 181 27266ft 536kts
04-Nov-20 11:36 39.806598 -123.167369 180 27263ft 539kts
04-Nov-20 11:37 39.651889 -123.159365 179 27261ft 543kts
04-Nov-20 11:38 39.498302 -123.149880 179 27290ft 541kts
04-Nov-20 11:39 39.345100 -123.142838 180 27291ft 539kts
04-Nov-20 11:40 39.196297 -123.137656 181 27281ft 489kts
04-Nov-20 11:41 39.069139 -123.122952 151 27316ft 442kts
04-Nov-20 11:42 38.964620 -123.034218 147 27294ft 443kts
04-Nov-20 11:43 38.857675 -122.952940 164 26091ft 429kts
04-Nov-20 11:44 38.743505 -122.916770 168 24553ft 408kts
04-Nov-20 11:45 38.634393 -122.885889 168 24265ft 401kts
04-Nov-20 11:46 38.524789 -122.855136 168 24060ft 407kts
04-Nov-20 11:47 38.415116 -122.824566 168 22647ft 396kts
04-Nov-20 11:48 38.308444 -122.794799 168 21116ft 379kts
04-Nov-20 11:49 38.208236 -122.764913 167 19343ft 348kts
04-Nov-20 11:50 38.112273 -122.735856 167 17912ft 361kts
04-Nov-20 11:51 38.014133 -122.706255 167 16413ft 353kts
04-Nov-20 11:52 37.925057 -122.678602 165 16265ft 318kts
04-Nov-20 11:53 37.851456 -122.618799 142 15023ft 307kts
04-Nov-20 11:54 37.786188 -122.552188 141 12832ft 296kts
04-Nov-20 11:55 37.723715 -122.487599 141 11264ft 268kts
04-Nov-20 11:56 37.667097 -122.428819 140 10987ft 267kts
04-Nov-20 11:57 37.613391 -122.374155 143 10248ft 240kts
04-Nov-20 11:58 37.562518 -122.325166 143 8343ft 223kts
04-Nov-20 11:59 37.512742 -122.278073 129 6952ft 208kts
04-Nov-20 12:00 37.488975 -122.215140 113 5222ft 196kts
04-Nov-20 12:01 37.514386 -122.171386 19 4010ft 185kts
04-Nov-20 12:02 37.552050 -122.210060 301 2846ft 202kts
04-Nov-20 12:03 37.576525 -122.268426 295 1619ft 165kts
04-Nov-20 12:04 37.597585 -122.318949 297 818ft 164kts
04-Nov-20 12:05 37.617480 -122.366620 298 14ft 136kts
04-Nov-20 12:06 37.622112 -122.375813 40 14ft 0kts

Navigation Log

Ident Type
Flight plan parsing failed, navigation log unavailable